createdAt,value
2022-11-01T00:01:31.856Z,9.35
2022-11-01T00:04:19.962Z,8.93
2022-11-01T00:07:08.814Z,9.05
2022-11-01T00:09:56.269Z,9.00
2022-11-01T00:12:45.095Z,8.88
2022-11-01T00:15:33.291Z,10.35
2022-11-01T00:18:20.877Z,9.55
2022-11-01T00:21:08.793Z,9.65
2022-11-01T00:23:57.935Z,11.25
2022-11-01T00:26:46.009Z,9.98
2022-11-01T00:29:33.537Z,9.70
2022-11-01T00:32:20.862Z,8.80
2022-11-01T00:35:09.488Z,8.93
2022-11-01T00:37:57.175Z,9.02
2022-11-01T00:40:47.008Z,8.18
2022-11-01T00:43:37.087Z,8.70
2022-11-01T00:46:24.427Z,8.50
2022-11-01T00:49:13.457Z,8.77
2022-11-01T00:52:01.062Z,8.27
2022-11-01T00:54:48.480Z,8.13
2022-11-01T00:57:37.310Z,8.65
2022-11-01T01:00:24.961Z,9.32
2022-11-01T01:03:14.312Z,8.48
2022-11-01T01:06:02.470Z,8.80
2022-11-01T01:08:50.505Z,8.20
2022-11-01T01:11:38.237Z,8.80
2022-11-01T01:14:32.335Z,9.35
2022-11-01T01:17:20.822Z,8.32
2022-11-01T01:20:16.594Z,8.63
2022-11-01T01:23:04.734Z,7.97
2022-11-01T01:25:54.921Z,8.13
2022-11-01T01:28:44.961Z,8.02
2022-11-01T01:31:36.525Z,8.90
2022-11-01T01:34:26.360Z,8.48
2022-11-01T01:37:15.478Z,8.35
2022-11-01T01:40:03.845Z,7.85
2022-11-01T01:42:51.287Z,7.82
2022-11-01T01:45:42.437Z,8.20
2022-11-01T01:48:31.935Z,8.18
2022-11-01T01:51:27.339Z,7.55
2022-11-01T01:54:14.909Z,8.10
2022-11-01T01:57:03.133Z,8.18
2022-11-01T01:59:52.231Z,8.63
2022-11-01T02:02:40.431Z,8.45
2022-11-01T02:05:45.112Z,8.88
2022-11-01T02:08:34.184Z,8.18
2022-11-01T02:11:23.032Z,10.45
2022-11-01T02:14:11.231Z,8.18
2022-11-01T02:17:08.809Z,8.55
2022-11-01T02:20:43.065Z,8.35
2022-11-01T02:24:07.359Z,10.85
2022-11-01T02:27:14.733Z,7.57
2022-11-01T02:30:19.845Z,8.13
2022-11-01T02:33:22.037Z,8.85
2022-11-01T02:36:21.208Z,8.33
2022-11-01T02:39:18.348Z,7.63
2022-11-01T02:42:19.800Z,8.07
2022-11-01T02:45:27.544Z,8.13
2022-11-01T02:48:20.604Z,7.90
2022-11-01T02:51:09.283Z,8.63
2022-11-01T02:53:57.600Z,8.13
2022-11-01T02:56:45.496Z,7.75
2022-11-01T02:59:46.348Z,8.35
2022-11-01T03:02:43.840Z,8.20
2022-11-01T03:05:53.465Z,7.47
2022-11-01T03:08:46.901Z,8.48
2022-11-01T03:11:50.084Z,7.88
2022-11-01T03:17:38.078Z,7.40
2022-11-01T03:20:48.344Z,8.32
2022-11-01T03:23:46.961Z,7.55
2022-11-01T03:26:38.371Z,10.75
2022-11-01T03:29:30.775Z,10.98
2022-11-01T03:32:21.103Z,8.15
2022-11-01T03:35:22.886Z,9.02
2022-11-01T03:38:18.575Z,9.65
2022-11-01T03:41:12.411Z,10.45
2022-11-01T03:44:01.837Z,10.05
2022-11-01T03:46:51.482Z,8.60
2022-11-01T03:49:39.103Z,9.57
2022-11-01T03:52:26.538Z,11.68
2022-11-01T03:55:20.697Z,8.43
2022-11-01T03:58:08.676Z,8.50
2022-11-01T04:01:01.045Z,8.85
2022-11-01T04:03:48.478Z,8.07
2022-11-01T04:06:35.905Z,7.80
2022-11-01T04:09:23.664Z,10.20
2022-11-01T04:12:12.805Z,8.93
2022-11-01T04:15:17.840Z,8.45
2022-11-01T04:18:29.772Z,9.07
2022-11-01T04:21:21.576Z,7.50
2022-11-01T04:24:11.110Z,8.50
2022-11-01T04:26:58.741Z,6.90
2022-11-01T04:29:47.803Z,8.07
2022-11-01T04:32:35.277Z,7.88
2022-11-01T04:35:23.363Z,7.65
2022-11-01T04:38:13.188Z,10.50
2022-11-01T04:41:00.582Z,10.07
2022-11-01T04:43:48.422Z,9.13
2022-11-01T04:46:37.514Z,7.63
2022-11-01T04:49:24.932Z,11.32
2022-11-01T04:52:12.349Z,9.90
2022-11-01T04:55:03.061Z,11.48
2022-11-01T04:57:54.142Z,11.93
2022-11-01T05:00:43.874Z,9.98
2022-11-01T05:03:33.211Z,10.52
2022-11-01T05:06:20.876Z,11.05
2022-11-01T05:09:08.395Z,14.63
2022-11-01T05:11:55.715Z,13.48
2022-11-01T05:14:44.662Z,9.05
2022-11-01T05:17:35.230Z,10.50
2022-11-01T05:20:26.061Z,13.07
2022-11-01T05:23:13.805Z,13.70
2022-11-01T05:26:01.334Z,14.52
2022-11-01T05:28:48.920Z,14.32
2022-11-01T05:31:36.706Z,14.57
2022-11-01T05:34:24.335Z,11.60
2022-11-01T05:37:13.800Z,12.32
2022-11-01T05:40:01.295Z,15.25
2022-11-01T05:42:48.726Z,13.32
2022-11-01T05:45:36.175Z,15.35
2022-11-01T05:48:23.794Z,14.95
2022-11-01T05:51:12.219Z,10.85
2022-11-01T05:54:01.157Z,10.85
2022-11-01T05:56:48.651Z,9.73
2022-11-01T05:59:36.026Z,10.10
2022-11-01T06:02:23.674Z,10.00
2022-11-01T06:05:11.503Z,9.30
2022-11-01T06:08:01.467Z,8.70
2022-11-01T06:10:50.398Z,11.95
2022-11-01T06:13:38.069Z,9.30
2022-11-01T06:16:27.448Z,14.77
2022-11-01T06:19:15.702Z,12.65
2022-11-01T06:22:03.021Z,13.20
2022-11-01T06:24:50.685Z,11.05
2022-11-01T06:27:40.040Z,11.82
2022-11-01T06:30:27.623Z,10.95
2022-11-01T06:33:15.386Z,8.68
2022-11-01T06:36:03.939Z,13.10
2022-11-01T06:38:52.115Z,11.15
2022-11-01T06:41:39.948Z,14.52
2022-11-01T06:44:29.083Z,10.55
2022-11-01T06:47:16.633Z,13.75
2022-11-01T06:50:04.520Z,10.40
2022-11-01T06:52:52.895Z,12.57
2022-11-01T06:55:40.408Z,12.38
2022-11-01T06:58:28.012Z,14.40
2022-11-01T07:01:19.070Z,13.80
2022-11-01T07:04:06.840Z,13.68
2022-11-01T07:06:55.046Z,9.77
2022-11-01T07:09:42.873Z,10.50
2022-11-01T07:12:30.301Z,10.48
2022-11-01T07:15:18.171Z,9.57
2022-11-01T07:18:09.318Z,13.52
2022-11-01T07:20:59.576Z,10.88
2022-11-01T07:23:47.241Z,13.45
2022-11-01T07:26:35.106Z,13.13
2022-11-01T07:29:22.550Z,11.10
2022-11-01T07:32:10.516Z,10.90
2022-11-01T07:34:59.125Z,12.15
2022-11-01T07:37:46.942Z,10.05
2022-11-01T07:40:34.937Z,10.30
2022-11-01T07:43:23.233Z,10.48
2022-11-01T07:46:11.007Z,9.82
2022-11-01T07:49:00.452Z,8.68
2022-11-01T07:51:49.541Z,8.63
2022-11-01T07:54:37.159Z,11.18
2022-11-01T07:57:24.765Z,8.73
2022-11-01T08:00:14.025Z,13.65
2022-11-01T08:03:03.285Z,13.13
2022-11-01T08:05:51.138Z,12.98
2022-11-01T08:08:40.510Z,12.05
2022-11-01T08:11:29.594Z,12.00
2022-11-01T08:14:17.363Z,10.65
2022-11-01T08:17:04.974Z,13.50
2022-11-01T08:19:52.541Z,11.40
2022-11-01T08:22:41.280Z,10.15
2022-11-01T08:25:32.603Z,10.95
2022-11-01T08:28:23.442Z,12.70
2022-11-01T08:31:12.209Z,9.75
2022-11-01T08:34:00.162Z,9.52
2022-11-01T08:36:47.988Z,11.98
2022-11-01T08:39:35.892Z,12.73
2022-11-01T08:42:24.798Z,11.98
2022-11-01T08:45:12.875Z,12.20
2022-11-01T08:48:01.163Z,12.77
2022-11-01T08:50:49.520Z,13.68
2022-11-01T08:53:36.900Z,11.52
2022-11-01T08:56:26.841Z,12.10
2022-11-01T08:59:16.015Z,9.80
2022-11-01T09:02:03.678Z,10.98
2022-11-01T09:04:53.454Z,10.13
2022-11-01T09:07:41.124Z,10.10
2022-11-01T09:10:32.331Z,9.85
2022-11-01T09:13:20.518Z,9.30
2022-11-01T09:16:09.994Z,10.63
2022-11-01T09:19:01.760Z,8.77
2022-11-01T09:21:49.908Z,8.68
2022-11-01T09:24:37.558Z,9.32
2022-11-01T09:27:25.497Z,10.70
2022-11-01T09:30:13.937Z,10.30
2022-11-01T09:33:07.131Z,11.57
2022-11-01T09:35:59.320Z,12.02
2022-11-01T09:38:47.487Z,10.77
2022-11-01T09:41:42.751Z,14.60
2022-11-01T09:44:35.611Z,13.77
2022-11-01T09:47:27.025Z,12.73
2022-11-01T09:50:24.876Z,10.85
2022-11-01T09:53:21.372Z,8.27
2022-11-01T09:56:17.919Z,8.13
2022-11-01T09:59:22.046Z,7.90
2022-11-01T10:03:05.850Z,11.63
2022-11-01T10:19:12.224Z,7.90
2022-11-01T10:22:08.439Z,11.25
2022-11-01T10:25:03.087Z,12.02
2022-11-01T10:28:10.862Z,13.07
2022-11-01T10:31:06.325Z,12.50
2022-11-01T10:34:01.703Z,13.20
2022-11-01T10:36:53.971Z,11.30
2022-11-01T10:39:56.282Z,11.43
2022-11-01T10:42:45.496Z,12.23
2022-11-01T10:45:33.335Z,10.07
2022-11-01T10:48:32.737Z,9.70
2022-11-01T10:51:28.002Z,9.57
2022-11-01T10:54:23.607Z,8.30
2022-11-01T10:57:18.558Z,7.20
2022-11-01T11:00:15.231Z,7.85
2022-11-01T11:03:18.681Z,6.72
2022-11-01T11:06:12.813Z,6.60
2022-11-01T11:09:02.936Z,12.60
2022-11-01T11:11:55.092Z,18.13
2022-11-01T11:14:45.244Z,9.20
2022-11-01T11:17:40.921Z,19.20
2022-11-01T11:20:30.566Z,21.77
2022-11-01T11:23:22.568Z,13.35
2022-11-01T11:26:16.565Z,15.57
2022-11-01T11:29:06.498Z,10.45
2022-11-01T11:31:59.226Z,15.93
2022-11-01T11:34:56.362Z,15.75
2022-11-01T11:37:56.178Z,15.13
2022-11-01T11:40:46.888Z,10.90
2022-11-01T11:43:36.235Z,11.93
2022-11-01T11:46:25.075Z,6.15
2022-11-01T11:49:28.116Z,18.50
2022-11-01T11:52:19.498Z,39.45
2022-11-01T11:55:28.676Z,35.30
2022-11-01T11:58:27.001Z,25.88
2022-11-01T12:01:22.172Z,40.33
2022-11-01T12:04:17.018Z,12.38
2022-11-01T12:07:06.845Z,6.88
2022-11-01T12:09:55.430Z,6.45
2022-11-01T12:12:53.446Z,3.50
2022-11-01T12:15:43.304Z,3.30
2022-11-01T12:18:30.763Z,2.90
2022-11-01T12:21:25.623Z,3.92
2022-11-01T12:24:22.614Z,4.28
2022-11-01T12:27:20.146Z,8.18
2022-11-01T12:30:18.011Z,3.25
2022-11-01T12:33:19.555Z,3.78
2022-11-01T12:36:10.090Z,12.27
2022-11-01T12:39:08.834Z,7.47
2022-11-01T12:42:02.261Z,3.67
2022-11-01T12:44:55.296Z,9.30
2022-11-01T12:47:51.344Z,3.53
2022-11-01T12:50:46.631Z,10.65
2022-11-01T12:53:42.155Z,6.82
2022-11-01T12:56:31.244Z,7.25
2022-11-01T12:59:33.875Z,14.05
2022-11-01T13:05:30.369Z,3.95
2022-11-01T13:08:29.365Z,7.70
2022-11-01T13:11:28.934Z,4.03
2022-11-01T13:14:53.405Z,9.90
2022-11-01T13:17:55.855Z,24.02
2022-11-01T13:20:56.390Z,19.35
2022-11-01T13:23:53.145Z,26.40
2022-11-01T13:26:49.878Z,25.80
2022-11-01T13:29:47.551Z,7.13
2022-11-01T13:32:50.151Z,23.08
2022-11-01T13:35:52.966Z,21.20
2022-11-01T13:38:50.070Z,19.92
2022-11-01T13:41:50.229Z,10.88
2022-11-01T13:44:47.513Z,7.40
2022-11-01T13:47:53.420Z,7.47
2022-11-01T13:51:08.478Z,6.28
2022-11-01T13:54:06.836Z,7.82
2022-11-01T13:57:02.386Z,8.23
2022-11-01T14:00:00.481Z,7.93
2022-11-01T14:02:57.415Z,8.65
2022-11-01T14:05:47.057Z,8.38
2022-11-01T14:08:39.328Z,8.05
2022-11-01T14:11:56.855Z,5.55
2022-11-01T14:14:52.955Z,5.32
2022-11-01T14:18:09.283Z,10.48
2022-11-01T14:20:58.583Z,22.67
2022-11-01T14:23:52.233Z,10.68
2022-11-01T14:26:50.521Z,12.25
2022-11-01T14:29:37.953Z,6.68
2022-11-01T14:32:30.115Z,12.20
2022-11-01T14:38:18.541Z,4.50
2022-11-01T14:41:08.569Z,11.40
2022-11-01T14:47:00.503Z,9.38
2022-11-01T14:49:49.092Z,9.38
2022-11-01T14:52:45.332Z,8.32
2022-11-01T14:55:38.502Z,6.68
2022-11-01T14:58:28.069Z,6.72
2022-11-01T15:01:19.398Z,4.80
2022-11-01T15:04:06.888Z,12.00
2022-11-01T15:06:54.730Z,3.53
2022-11-01T15:09:55.388Z,3.50
2022-11-01T15:12:48.868Z,3.08
2022-11-01T15:15:41.087Z,3.92
2022-11-01T15:18:31.596Z,2.80
2022-11-01T15:21:28.826Z,5.85
2022-11-01T15:24:36.992Z,3.50
2022-11-01T15:27:35.559Z,4.05
2022-11-01T15:30:27.137Z,3.50
2022-11-01T15:33:24.787Z,3.33
2022-11-01T15:36:23.759Z,2.45
2022-11-01T15:39:21.180Z,2.55
2022-11-01T15:42:16.449Z,2.50
2022-11-01T15:45:22.844Z,2.90
2022-11-01T15:48:18.299Z,4.40
2022-11-01T15:51:10.092Z,4.80
2022-11-01T15:54:05.082Z,6.22
2022-11-01T15:56:57.821Z,7.30
2022-11-01T15:59:59.755Z,8.13
2022-11-01T16:02:56.183Z,9.13
2022-11-01T16:05:56.719Z,10.85
2022-11-01T16:08:54.209Z,11.23
2022-11-01T16:11:42.020Z,12.02
2022-11-01T16:14:37.661Z,9.48
2022-11-01T16:17:33.571Z,9.60
2022-11-01T16:20:35.046Z,11.48
2022-11-01T16:23:28.692Z,11.23
2022-11-01T16:26:17.005Z,6.80
2022-11-01T16:29:04.880Z,4.88
2022-11-01T16:32:09.715Z,8.68
2022-11-01T16:35:00.178Z,8.82
2022-11-01T16:37:49.286Z,9.93
2022-11-01T16:40:39.072Z,9.32
2022-11-01T16:43:30.989Z,8.55
2022-11-01T16:46:20.655Z,8.00
2022-11-01T16:49:26.187Z,18.33
2022-11-01T16:52:13.657Z,21.33
2022-11-01T16:55:02.784Z,19.80
2022-11-01T16:57:50.536Z,12.23
2022-11-01T17:00:38.672Z,10.25
2022-11-01T17:03:27.736Z,10.50
2022-11-01T17:06:15.887Z,10.60
2022-11-01T17:09:03.778Z,9.48
2022-11-01T17:11:54.345Z,8.95
2022-11-01T17:14:43.037Z,8.05
2022-11-01T17:17:31.912Z,8.57
2022-11-01T17:20:26.501Z,8.18
2022-11-01T17:23:18.318Z,8.32
2022-11-01T17:26:10.416Z,7.87
2022-11-01T17:29:00.075Z,8.83
2022-11-01T17:31:48.036Z,9.65
2022-11-01T17:34:36.635Z,9.77
2022-11-01T17:37:27.042Z,8.48
2022-11-01T17:40:21.547Z,7.97
2022-11-01T17:43:16.676Z,8.35
2022-11-01T17:46:14.964Z,7.70
2022-11-01T17:49:02.893Z,7.45
2022-11-01T17:52:33.741Z,6.90
2022-11-01T17:56:11.742Z,7.35
2022-11-01T17:59:04.820Z,7.25
2022-11-01T18:02:05.139Z,8.00
2022-11-01T18:04:53.526Z,7.68
2022-11-01T18:07:44.819Z,8.45
2022-11-01T18:10:43.462Z,9.18
2022-11-01T18:13:52.075Z,9.35
2022-11-01T18:16:49.269Z,8.85
2022-11-01T18:19:52.643Z,8.05
2022-11-01T18:22:52.262Z,7.70
2022-11-01T18:25:45.790Z,6.80
2022-11-01T18:28:35.247Z,6.60
2022-11-01T18:31:30.225Z,6.90
2022-11-01T18:34:40.571Z,6.45
2022-11-01T18:37:43.997Z,5.93
2022-11-01T18:40:51.554Z,5.90
2022-11-01T18:43:43.125Z,6.00
2022-11-01T18:46:40.696Z,5.35
2022-11-01T18:49:30.243Z,6.47
2022-11-01T18:52:20.908Z,5.18
2022-11-01T18:55:14.718Z,5.60
2022-11-01T18:58:16.029Z,5.35
2022-11-01T19:01:14.376Z,5.40
2022-11-01T19:04:15.299Z,6.38
2022-11-01T19:07:14.822Z,5.82
2022-11-01T19:10:19.296Z,6.32
2022-11-01T19:13:16.748Z,6.13
2022-11-01T19:16:06.708Z,6.85
2022-11-01T19:18:54.245Z,6.60
2022-11-01T19:21:41.947Z,6.45
2022-11-01T19:24:37.217Z,6.38
2022-11-01T19:27:26.724Z,6.13
2022-11-01T19:30:26.161Z,6.35
2022-11-01T19:33:30.126Z,6.00
2022-11-01T19:36:21.740Z,4.78
2022-11-01T19:39:25.556Z,4.72
2022-11-01T19:42:25.090Z,4.97
2022-11-01T19:45:33.060Z,5.05
2022-11-01T19:48:27.072Z,4.93
2022-11-01T19:51:20.602Z,4.70
2022-11-01T19:54:12.747Z,4.43
2022-11-01T19:57:02.704Z,4.15
2022-11-01T19:59:50.251Z,4.32
2022-11-01T20:02:39.492Z,4.65
2022-11-01T20:05:33.457Z,4.82
2022-11-01T20:08:33.337Z,4.47
2022-11-01T20:11:21.271Z,4.47
2022-11-01T20:14:09.632Z,4.45
2022-11-01T20:16:57.411Z,4.60
2022-11-01T20:19:46.351Z,4.18
2022-11-01T20:22:35.340Z,4.47
2022-11-01T20:25:23.133Z,4.70
2022-11-01T20:28:14.197Z,4.10
2022-11-01T20:31:06.598Z,4.45
2022-11-01T20:33:55.618Z,4.47
2022-11-01T20:37:08.080Z,4.60
2022-11-01T20:40:00.099Z,4.38
2022-11-01T20:42:48.732Z,4.38
2022-11-01T20:45:39.172Z,4.40
2022-11-01T20:48:26.986Z,4.35
2022-11-01T20:51:15.882Z,4.40
2022-11-01T20:54:05.444Z,4.00
2022-11-01T20:56:53.308Z,4.00
2022-11-01T20:59:45.250Z,4.28
2022-11-01T21:02:34.935Z,4.03
2022-11-01T21:05:27.158Z,4.40
2022-11-01T21:08:24.780Z,4.70
2022-11-01T21:11:44.258Z,4.82
2022-11-01T21:14:38.011Z,5.05
2022-11-01T21:17:26.657Z,4.57
2022-11-01T21:20:26.744Z,4.55
2022-11-01T21:23:29.429Z,4.88
2022-11-01T21:26:23.357Z,4.70
2022-11-01T21:29:29.413Z,4.70
2022-11-01T21:32:30.070Z,5.35
2022-11-01T21:35:49.384Z,5.13
2022-11-01T21:38:43.268Z,5.30
2022-11-01T21:41:41.657Z,5.28
2022-11-01T21:44:36.741Z,5.72
2022-11-01T21:47:28.066Z,5.88
2022-11-01T21:50:15.947Z,5.80
2022-11-01T21:53:04.042Z,5.47
2022-11-01T21:55:52.663Z,5.15
2022-11-01T21:58:42.986Z,4.55
2022-11-01T22:01:30.884Z,5.40
2022-11-01T22:04:19.013Z,5.20
2022-11-01T22:07:10.207Z,5.15
2022-11-01T22:09:57.842Z,4.75
2022-11-01T22:13:09.075Z,4.30
2022-11-01T22:16:34.646Z,4.85
2022-11-01T22:20:00.691Z,4.10
2022-11-01T22:25:57.658Z,4.53
2022-11-01T22:28:46.076Z,3.90
2022-11-01T22:31:35.041Z,5.20
2022-11-01T22:34:26.223Z,6.70
2022-11-01T22:37:14.430Z,4.28
2022-11-01T22:40:02.453Z,5.25
2022-11-01T22:42:57.051Z,4.35
2022-11-01T22:45:44.839Z,4.70
2022-11-01T22:48:37.139Z,5.00
2022-11-01T22:51:31.127Z,4.80
2022-11-01T22:54:34.017Z,5.43
2022-11-01T22:57:28.463Z,5.50
2022-11-01T23:00:33.683Z,5.00
2022-11-01T23:03:26.574Z,4.57
2022-11-01T23:09:23.742Z,4.80
2022-11-01T23:12:44.927Z,4.75
2022-11-01T23:15:34.526Z,6.18
2022-11-01T23:18:28.476Z,5.30
2022-11-01T23:21:18.406Z,5.07
2022-11-01T23:24:08.885Z,5.10
2022-11-01T23:26:56.572Z,5.15
2022-11-01T23:29:44.417Z,4.72
2022-11-01T23:32:32.889Z,5.50
2022-11-01T23:35:23.066Z,4.68
2022-11-01T23:38:21.087Z,5.38
2022-11-01T23:41:22.785Z,5.38
2022-11-01T23:44:29.694Z,5.35
2022-11-01T23:47:25.891Z,5.68
2022-11-01T23:50:21.662Z,6.20
2022-11-01T23:53:15.373Z,5.30
2022-11-01T23:56:07.703Z,5.10
2022-11-01T23:59:03.724Z,5.10
